sensor_id;sensor_type;location;lat;lon;timestamp;P1;durP1;ratioP1;P2;durP2;ratioP2
22205;SDS011;11272;50.104;8.754;2022-07-30T00:00:53;8.70;;;5.00;;
22205;SDS011;11272;50.104;8.754;2022-07-30T00:03:18;8.17;;;5.00;;
22205;SDS011;11272;50.104;8.754;2022-07-30T00:05:44;7.37;;;4.63;;
22205;SDS011;11272;50.104;8.754;2022-07-30T00:08:09;4.70;;;4.23;;
22205;SDS011;11272;50.104;8.754;2022-07-30T00:10:35;6.40;;;4.07;;
22205;SDS011;11272;50.104;8.754;2022-07-30T00:13:00;4.90;;;4.10;;
22205;SDS011;11272;50.104;8.754;2022-07-30T00:15:25;6.40;;;3.80;;
22205;SDS011;11272;50.104;8.754;2022-07-30T00:17:51;4.73;;;4.10;;
22205;SDS011;11272;50.104;8.754;2022-07-30T00:20:17;7.57;;;4.50;;
22205;SDS011;11272;50.104;8.754;2022-07-30T00:22:42;10.37;;;4.40;;
22205;SDS011;11272;50.104;8.754;2022-07-30T00:25:08;8.73;;;4.47;;
22205;SDS011;11272;50.104;8.754;2022-07-30T00:27:34;7.07;;;4.47;;
22205;SDS011;11272;50.104;8.754;2022-07-30T00:30:00;9.33;;;4.63;;
22205;SDS011;11272;50.104;8.754;2022-07-30T00:32:26;5.30;;;4.17;;
22205;SDS011;11272;50.104;8.754;2022-07-30T00:34:51;6.27;;;4.03;;
22205;SDS011;11272;50.104;8.754;2022-07-30T00:37:17;7.47;;;3.97;;
22205;SDS011;11272;50.104;8.754;2022-07-30T00:39:42;5.80;;;4.13;;
22205;SDS011;11272;50.104;8.754;2022-07-30T00:42:07;7.37;;;4.40;;
22205;SDS011;11272;50.104;8.754;2022-07-30T00:44:33;5.27;;;4.20;;
22205;SDS011;11272;50.104;8.754;2022-07-30T00:46:58;8.03;;;5.00;;
22205;SDS011;11272;50.104;8.754;2022-07-30T00:49:24;7.73;;;4.53;;
22205;SDS011;11272;50.104;8.754;2022-07-30T00:51:50;7.83;;;4.90;;
22205;SDS011;11272;50.104;8.754;2022-07-30T00:54:16;6.97;;;4.07;;
22205;SDS011;11272;50.104;8.754;2022-07-30T00:56:41;7.27;;;4.33;;
22205;SDS011;11272;50.104;8.754;2022-07-30T00:59:07;8.47;;;4.87;;
22205;SDS011;11272;50.104;8.754;2022-07-30T01:01:32;9.97;;;4.50;;
22205;SDS011;11272;50.104;8.754;2022-07-30T01:03:58;7.30;;;5.00;;
22205;SDS011;11272;50.104;8.754;2022-07-30T01:06:24;4.73;;;4.20;;
22205;SDS011;11272;50.104;8.754;2022-07-30T01:08:49;5.80;;;4.57;;
22205;SDS011;11272;50.104;8.754;2022-07-30T01:11:15;6.27;;;4.27;;
22205;SDS011;11272;50.104;8.754;2022-07-30T01:13:41;6.03;;;4.47;;
22205;SDS011;11272;50.104;8.754;2022-07-30T01:16:07;6.40;;;4.20;;
22205;SDS011;11272;50.104;8.754;2022-07-30T01:18:33;4.77;;;4.17;;
22205;SDS011;11272;50.104;8.754;2022-07-30T01:21:20;6.50;;;4.60;;
22205;SDS011;11272;50.104;8.754;2022-07-30T01:23:52;4.50;;;4.10;;
22205;SDS011;11272;50.104;8.754;2022-07-30T01:26:29;6.90;;;4.33;;
22205;SDS011;11272;50.104;8.754;2022-07-30T01:28:55;13.83;;;7.43;;
22205;SDS011;11272;50.104;8.754;2022-07-30T01:31:24;7.83;;;4.77;;
22205;SDS011;11272;50.104;8.754;2022-07-30T01:33:52;8.20;;;4.60;;
22205;SDS011;11272;50.104;8.754;2022-07-30T01:36:19;7.90;;;4.60;;
22205;SDS011;11272;50.104;8.754;2022-07-30T01:38:47;4.70;;;4.20;;
22205;SDS011;11272;50.104;8.754;2022-07-30T01:41:14;4.93;;;4.43;;
22205;SDS011;11272;50.104;8.754;2022-07-30T01:43:42;5.73;;;4.47;;
22205;SDS011;11272;50.104;8.754;2022-07-30T01:46:09;6.10;;;4.23;;
22205;SDS011;11272;50.104;8.754;2022-07-30T01:48:39;5.67;;;4.43;;
22205;SDS011;11272;50.104;8.754;2022-07-30T01:51:09;6.27;;;4.23;;
22205;SDS011;11272;50.104;8.754;2022-07-30T01:53:37;4.37;;;3.47;;
22205;SDS011;11272;50.104;8.754;2022-07-30T01:56:06;5.97;;;4.40;;
22205;SDS011;11272;50.104;8.754;2022-07-30T01:58:34;4.90;;;4.37;;
22205;SDS011;11272;50.104;8.754;2022-07-30T02:01:15;8.93;;;4.63;;
22205;SDS011;11272;50.104;8.754;2022-07-30T02:03:42;5.57;;;4.37;;
22205;SDS011;11272;50.104;8.754;2022-07-30T02:06:08;7.13;;;4.60;;
22205;SDS011;11272;50.104;8.754;2022-07-30T02:11:19;6.23;;;4.50;;
22205;SDS011;11272;50.104;8.754;2022-07-30T02:14:08;6.70;;;4.47;;
22205;SDS011;11272;50.104;8.754;2022-07-30T02:16:39;5.30;;;4.57;;
22205;SDS011;11272;50.104;8.754;2022-07-30T02:19:10;4.60;;;4.13;;
22205;SDS011;11272;50.104;8.754;2022-07-30T02:21:40;7.97;;;4.00;;
22205;SDS011;11272;50.104;8.754;2022-07-30T02:24:11;7.30;;;4.63;;
22205;SDS011;11272;50.104;8.754;2022-07-30T02:26:40;6.33;;;4.67;;
22205;SDS011;11272;50.104;8.754;2022-07-30T02:29:07;7.43;;;4.50;;
22205;SDS011;11272;50.104;8.754;2022-07-30T02:31:34;5.10;;;4.30;;
22205;SDS011;11272;50.104;8.754;2022-07-30T02:34:02;6.97;;;4.20;;
22205;SDS011;11272;50.104;8.754;2022-07-30T02:36:29;4.77;;;4.20;;
22205;SDS011;11272;50.104;8.754;2022-07-30T02:38:57;5.60;;;4.40;;
22205;SDS011;11272;50.104;8.754;2022-07-30T02:41:24;5.00;;;4.37;;
22205;SDS011;11272;50.104;8.754;2022-07-30T02:43:52;7.43;;;4.33;;
22205;SDS011;11272;50.104;8.754;2022-07-30T02:46:20;5.77;;;4.63;;
22205;SDS011;11272;50.104;8.754;2022-07-30T02:49:14;6.13;;;4.60;;
22205;SDS011;11272;50.104;8.754;2022-07-30T02:51:44;6.20;;;4.80;;
22205;SDS011;11272;50.104;8.754;2022-07-30T02:54:11;6.17;;;4.83;;
22205;SDS011;11272;50.104;8.754;2022-07-30T02:56:41;5.93;;;4.90;;
22205;SDS011;11272;50.104;8.754;2022-07-30T02:59:09;5.27;;;4.77;;
22205;SDS011;11272;50.104;8.754;2022-07-30T03:01:36;5.37;;;4.87;;
22205;SDS011;11272;50.104;8.754;2022-07-30T03:04:02;7.13;;;5.07;;
22205;SDS011;11272;50.104;8.754;2022-07-30T03:06:29;5.30;;;4.60;;
22205;SDS011;11272;50.104;8.754;2022-07-30T03:08:55;8.33;;;5.20;;
22205;SDS011;11272;50.104;8.754;2022-07-30T03:11:22;6.47;;;4.50;;
22205;SDS011;11272;50.104;8.754;2022-07-30T03:13:49;5.53;;;4.80;;
22205;SDS011;11272;50.104;8.754;2022-07-30T03:16:14;6.33;;;5.13;;
22205;SDS011;11272;50.104;8.754;2022-07-30T03:18:42;7.80;;;5.40;;
22205;SDS011;11272;50.104;8.754;2022-07-30T03:21:09;6.47;;;5.53;;
22205;SDS011;11272;50.104;8.754;2022-07-30T03:23:38;6.67;;;5.53;;
22205;SDS011;11272;50.104;8.754;2022-07-30T03:26:05;9.87;;;5.80;;
22205;SDS011;11272;50.104;8.754;2022-07-30T03:28:33;6.70;;;5.83;;
22205;SDS011;11272;50.104;8.754;2022-07-30T03:31:04;7.17;;;5.90;;
22205;SDS011;11272;50.104;8.754;2022-07-30T03:33:30;7.90;;;5.73;;
22205;SDS011;11272;50.104;8.754;2022-07-30T03:35:56;7.90;;;5.60;;
22205;SDS011;11272;50.104;8.754;2022-07-30T03:38:23;10.37;;;5.93;;
22205;SDS011;11272;50.104;8.754;2022-07-30T03:40:50;9.13;;;6.03;;
22205;SDS011;11272;50.104;8.754;2022-07-30T03:43:16;6.87;;;5.90;;
22205;SDS011;11272;50.104;8.754;2022-07-30T03:45:43;9.40;;;5.90;;
22205;SDS011;11272;50.104;8.754;2022-07-30T03:48:10;8.03;;;5.83;;
22205;SDS011;11272;50.104;8.754;2022-07-30T03:50:41;10.27;;;6.50;;
22205;SDS011;11272;50.104;8.754;2022-07-30T03:53:08;12.73;;;6.10;;
22205;SDS011;11272;50.104;8.754;2022-07-30T03:55:54;12.90;;;6.43;;
22205;SDS011;11272;50.104;8.754;2022-07-30T03:58:50;8.33;;;6.43;;
22205;SDS011;11272;50.104;8.754;2022-07-30T04:01:16;8.03;;;6.37;;
22205;SDS011;11272;50.104;8.754;2022-07-30T04:03:42;9.53;;;6.53;;
22205;SDS011;11272;50.104;8.754;2022-07-30T04:06:07;10.63;;;7.00;;
22205;SDS011;11272;50.104;8.754;2022-07-30T04:08:33;12.03;;;6.30;;
22205;SDS011;11272;50.104;8.754;2022-07-30T04:10:58;7.80;;;6.60;;
22205;SDS011;11272;50.104;8.754;2022-07-30T04:13:45;8.73;;;6.77;;
22205;SDS011;11272;50.104;8.754;2022-07-30T04:16:15;13.27;;;7.07;;
22205;SDS011;11272;50.104;8.754;2022-07-30T04:18:49;10.53;;;6.77;;
22205;SDS011;11272;50.104;8.754;2022-07-30T04:21:17;9.53;;;6.53;;
22205;SDS011;11272;50.104;8.754;2022-07-30T04:23:46;15.43;;;6.60;;
22205;SDS011;11272;50.104;8.754;2022-07-30T04:26:13;11.97;;;6.60;;
22205;SDS011;11272;50.104;8.754;2022-07-30T04:28:39;9.33;;;6.23;;
22205;SDS011;11272;50.104;8.754;2022-07-30T04:31:05;7.43;;;6.60;;
22205;SDS011;11272;50.104;8.754;2022-07-30T04:33:31;11.87;;;6.63;;
22205;SDS011;11272;50.104;8.754;2022-07-30T04:36:08;8.67;;;6.87;;
22205;SDS011;11272;50.104;8.754;2022-07-30T04:38:36;9.67;;;6.90;;
22205;SDS011;11272;50.104;8.754;2022-07-30T04:41:01;8.60;;;6.63;;
22205;SDS011;11272;50.104;8.754;2022-07-30T04:43:32;6.93;;;6.23;;
22205;SDS011;11272;50.104;8.754;2022-07-30T04:45:58;11.00;;;6.40;;
22205;SDS011;11272;50.104;8.754;2022-07-30T04:48:24;6.77;;;6.07;;
22205;SDS011;11272;50.104;8.754;2022-07-30T04:51:02;8.87;;;6.17;;
22205;SDS011;11272;50.104;8.754;2022-07-30T04:53:30;7.30;;;5.97;;
22205;SDS011;11272;50.104;8.754;2022-07-30T04:55:59;9.13;;;6.33;;
22205;SDS011;11272;50.104;8.754;2022-07-30T04:58:27;10.40;;;7.37;;
22205;SDS011;11272;50.104;8.754;2022-07-30T05:00:56;12.47;;;6.07;;
22205;SDS011;11272;50.104;8.754;2022-07-30T05:03:29;8.13;;;6.57;;
22205;SDS011;11272;50.104;8.754;2022-07-30T05:05:56;8.07;;;6.67;;
22205;SDS011;11272;50.104;8.754;2022-07-30T05:08:23;9.03;;;6.50;;
22205;SDS011;11272;50.104;8.754;2022-07-30T05:10:49;9.73;;;6.63;;
22205;SDS011;11272;50.104;8.754;2022-07-30T05:13:14;8.80;;;6.00;;
22205;SDS011;11272;50.104;8.754;2022-07-30T05:15:41;8.00;;;6.37;;
22205;SDS011;11272;50.104;8.754;2022-07-30T05:18:10;10.37;;;6.90;;
22205;SDS011;11272;50.104;8.754;2022-07-30T05:20:40;8.77;;;6.10;;
22205;SDS011;11272;50.104;8.754;2022-07-30T05:23:28;7.83;;;5.77;;
22205;SDS011;11272;50.104;8.754;2022-07-30T05:26:09;8.13;;;6.10;;
22205;SDS011;11272;50.104;8.754;2022-07-30T05:28:40;8.47;;;6.07;;
22205;SDS011;11272;50.104;8.754;2022-07-30T05:31:09;8.97;;;6.03;;
22205;SDS011;11272;50.104;8.754;2022-07-30T05:33:36;6.83;;;5.53;;
22205;SDS011;11272;50.104;8.754;2022-07-30T05:36:02;7.00;;;5.13;;
22205;SDS011;11272;50.104;8.754;2022-07-30T05:38:28;7.33;;;5.43;;
22205;SDS011;11272;50.104;8.754;2022-07-30T05:41:16;10.10;;;5.37;;
22205;SDS011;11272;50.104;8.754;2022-07-30T05:43:59;6.60;;;4.33;;
22205;SDS011;11272;50.104;8.754;2022-07-30T05:46:25;7.20;;;5.20;;
22205;SDS011;11272;50.104;8.754;2022-07-30T05:48:51;7.33;;;4.30;;
22205;SDS011;11272;50.104;8.754;2022-07-30T05:51:16;5.00;;;4.47;;
22205;SDS011;11272;50.104;8.754;2022-07-30T05:53:43;5.50;;;4.03;;
22205;SDS011;11272;50.104;8.754;2022-07-30T05:56:09;4.10;;;3.57;;
22205;SDS011;11272;50.104;8.754;2022-07-30T05:58:57;5.03;;;3.97;;
22205;SDS011;11272;50.104;8.754;2022-07-30T06:01:52;4.87;;;4.10;;
22205;SDS011;11272;50.104;8.754;2022-07-30T06:04:23;4.47;;;3.80;;
22205;SDS011;11272;50.104;8.754;2022-07-30T06:06:54;4.47;;;3.80;;
22205;SDS011;11272;50.104;8.754;2022-07-30T06:09:22;4.83;;;3.73;;
22205;SDS011;11272;50.104;8.754;2022-07-30T06:11:48;4.37;;;3.70;;
22205;SDS011;11272;50.104;8.754;2022-07-30T06:14:14;8.57;;;4.13;;
22205;SDS011;11272;50.104;8.754;2022-07-30T06:16:40;10.07;;;4.60;;
22205;SDS011;11272;50.104;8.754;2022-07-30T06:19:06;5.23;;;4.10;;
22205;SDS011;11272;50.104;8.754;2022-07-30T06:21:41;4.70;;;4.00;;
22205;SDS011;11272;50.104;8.754;2022-07-30T06:24:09;10.47;;;4.40;;
22205;SDS011;11272;50.104;8.754;2022-07-30T06:26:39;6.83;;;4.63;;
22205;SDS011;11272;50.104;8.754;2022-07-30T06:29:06;7.13;;;5.10;;
22205;SDS011;11272;50.104;8.754;2022-07-30T06:31:31;6.87;;;5.07;;
22205;SDS011;11272;50.104;8.754;2022-07-30T06:33:57;7.17;;;5.40;;
22205;SDS011;11272;50.104;8.754;2022-07-30T06:36:24;6.70;;;4.17;;
22205;SDS011;11272;50.104;8.754;2022-07-30T06:39:03;5.13;;;4.63;;
22205;SDS011;11272;50.104;8.754;2022-07-30T06:41:51;9.43;;;4.90;;
22205;SDS011;11272;50.104;8.754;2022-07-30T06:44:16;9.03;;;5.63;;
22205;SDS011;11272;50.104;8.754;2022-07-30T06:47:07;6.43;;;5.40;;
22205;SDS011;11272;50.104;8.754;2022-07-30T06:49:33;6.50;;;5.43;;
22205;SDS011;11272;50.104;8.754;2022-07-30T06:52:04;9.43;;;6.37;;
22205;SDS011;11272;50.104;8.754;2022-07-30T06:54:30;11.83;;;5.87;;
22205;SDS011;11272;50.104;8.754;2022-07-30T06:57:03;6.83;;;5.30;;
22205;SDS011;11272;50.104;8.754;2022-07-30T06:59:29;7.90;;;6.07;;
22205;SDS011;11272;50.104;8.754;2022-07-30T07:02:03;7.83;;;6.13;;
22205;SDS011;11272;50.104;8.754;2022-07-30T07:04:32;10.57;;;6.50;;
22205;SDS011;11272;50.104;8.754;2022-07-30T07:06:59;9.73;;;6.10;;
22205;SDS011;11272;50.104;8.754;2022-07-30T07:09:31;10.53;;;6.37;;
22205;SDS011;11272;50.104;8.754;2022-07-30T07:12:29;7.63;;;5.70;;
22205;SDS011;11272;50.104;8.754;2022-07-30T07:14:54;7.85;;;5.30;;
22205;SDS011;11272;50.104;8.754;2022-07-30T07:17:19;9.68;;;5.88;;
22205;SDS011;11272;50.104;8.754;2022-07-30T07:20:03;10.50;;;6.22;;
22205;SDS011;11272;50.104;8.754;2022-07-30T07:22:36;6.35;;;5.40;;
22205;SDS011;11272;50.104;8.754;2022-07-30T07:25:02;13.15;;;5.55;;
22205;SDS011;11272;50.104;8.754;2022-07-30T07:27:30;7.32;;;5.07;;
22205;SDS011;11272;50.104;8.754;2022-07-30T07:29:58;8.02;;;4.95;;
22205;SDS011;11272;50.104;8.754;2022-07-30T07:32:24;10.35;;;5.45;;
22205;SDS011;11272;50.104;8.754;2022-07-30T07:34:50;8.48;;;5.63;;
22205;SDS011;11272;50.104;8.754;2022-07-30T07:37:15;9.00;;;5.07;;
22205;SDS011;11272;50.104;8.754;2022-07-30T07:39:41;6.65;;;4.78;;
22205;SDS011;11272;50.104;8.754;2022-07-30T07:42:07;10.00;;;4.80;;
22205;SDS011;11272;50.104;8.754;2022-07-30T07:44:36;7.88;;;4.88;;
22205;SDS011;11272;50.104;8.754;2022-07-30T07:47:02;6.80;;;5.20;;
22205;SDS011;11272;50.104;8.754;2022-07-30T07:49:32;6.70;;;5.22;;
22205;SDS011;11272;50.104;8.754;2022-07-30T07:51:59;7.00;;;4.68;;
22205;SDS011;11272;50.104;8.754;2022-07-30T07:54:24;10.80;;;5.70;;
22205;SDS011;11272;50.104;8.754;2022-07-30T07:56:52;9.38;;;5.45;;
22205;SDS011;11272;50.104;8.754;2022-07-30T07:59:24;8.90;;;5.95;;
22205;SDS011;11272;50.104;8.754;2022-07-30T08:01:51;7.18;;;5.15;;
22205;SDS011;11272;50.104;8.754;2022-07-30T08:04:35;8.50;;;4.82;;
22205;SDS011;11272;50.104;8.754;2022-07-30T08:07:20;10.50;;;5.38;;
22205;SDS011;11272;50.104;8.754;2022-07-30T08:10:18;6.93;;;4.40;;
22205;SDS011;11272;50.104;8.754;2022-07-30T08:13:06;8.10;;;5.07;;
22205;SDS011;11272;50.104;8.754;2022-07-30T08:15:32;9.98;;;5.00;;
22205;SDS011;11272;50.104;8.754;2022-07-30T08:18:34;7.35;;;4.80;;
22205;SDS011;11272;50.104;8.754;2022-07-30T08:21:14;7.97;;;4.90;;
22205;SDS011;11272;50.104;8.754;2022-07-30T08:23:40;8.05;;;5.00;;
22205;SDS011;11272;50.104;8.754;2022-07-30T08:26:05;7.85;;;4.75;;
22205;SDS011;11272;50.104;8.754;2022-07-30T08:28:32;7.70;;;5.15;;
22205;SDS011;11272;50.104;8.754;2022-07-30T08:30:57;7.97;;;5.25;;
22205;SDS011;11272;50.104;8.754;2022-07-30T08:33:23;9.68;;;4.97;;
22205;SDS011;11272;50.104;8.754;2022-07-30T08:35:49;9.43;;;5.30;;
22205;SDS011;11272;50.104;8.754;2022-07-30T08:38:14;8.43;;;5.43;;
22205;SDS011;11272;50.104;8.754;2022-07-30T08:40:40;10.00;;;4.60;;
22205;SDS011;11272;50.104;8.754;2022-07-30T08:43:06;6.22;;;4.65;;
22205;SDS011;11272;50.104;8.754;2022-07-30T08:45:32;6.53;;;4.22;;
22205;SDS011;11272;50.104;8.754;2022-07-30T08:48:09;10.75;;;4.40;;
22205;SDS011;11272;50.104;8.754;2022-07-30T08:50:41;6.32;;;4.22;;
22205;SDS011;11272;50.104;8.754;2022-07-30T08:53:44;8.93;;;3.97;;
22205;SDS011;11272;50.104;8.754;2022-07-30T08:56:10;9.63;;;5.03;;
22205;SDS011;11272;50.104;8.754;2022-07-30T08:58:36;5.78;;;4.40;;
22205;SDS011;11272;50.104;8.754;2022-07-30T09:01:02;9.30;;;4.30;;
22205;SDS011;11272;50.104;8.754;2022-07-30T09:03:29;7.22;;;4.88;;
22205;SDS011;11272;50.104;8.754;2022-07-30T09:06:01;9.38;;;4.97;;
22205;SDS011;11272;50.104;8.754;2022-07-30T09:08:28;6.68;;;4.15;;
22205;SDS011;11272;50.104;8.754;2022-07-30T09:10:54;9.90;;;5.28;;
22205;SDS011;11272;50.104;8.754;2022-07-30T09:15:55;10.43;;;4.75;;
22205;SDS011;11272;50.104;8.754;2022-07-30T09:18:26;11.00;;;5.15;;
22205;SDS011;11272;50.104;8.754;2022-07-30T09:20:54;7.63;;;4.82;;
22205;SDS011;11272;50.104;8.754;2022-07-30T09:23:20;6.85;;;5.03;;
22205;SDS011;11272;50.104;8.754;2022-07-30T09:26:04;11.13;;;5.35;;
22205;SDS011;11272;50.104;8.754;2022-07-30T09:28:44;9.25;;;5.63;;
22205;SDS011;11272;50.104;8.754;2022-07-30T09:31:13;10.90;;;5.85;;
22205;SDS011;11272;50.104;8.754;2022-07-30T09:34:21;10.65;;;5.00;;
22205;SDS011;11272;50.104;8.754;2022-07-30T09:36:59;7.32;;;5.03;;
22205;SDS011;11272;50.104;8.754;2022-07-30T09:39:44;12.40;;;5.68;;
22205;SDS011;11272;50.104;8.754;2022-07-30T09:42:20;9.50;;;5.68;;
22205;SDS011;11272;50.104;8.754;2022-07-30T09:45:03;9.18;;;5.65;;
22205;SDS011;11272;50.104;8.754;2022-07-30T09:47:36;10.15;;;4.65;;
22205;SDS011;11272;50.104;8.754;2022-07-30T09:50:08;24.30;;;7.22;;
22205;SDS011;11272;50.104;8.754;2022-07-30T09:52:39;9.48;;;4.78;;
22205;SDS011;11272;50.104;8.754;2022-07-30T09:55:07;9.23;;;3.95;;
22205;SDS011;11272;50.104;8.754;2022-07-30T09:57:33;6.05;;;4.40;;
22205;SDS011;11272;50.104;8.754;2022-07-30T10:00:15;9.25;;;4.90;;
22205;SDS011;11272;50.104;8.754;2022-07-30T10:02:47;13.25;;;5.20;;
22205;SDS011;11272;50.104;8.754;2022-07-30T10:05:33;10.18;;;4.90;;
22205;SDS011;11272;50.104;8.754;2022-07-30T10:07:59;9.60;;;4.50;;
22205;SDS011;11272;50.104;8.754;2022-07-30T10:10:27;9.35;;;4.20;;
22205;SDS011;11272;50.104;8.754;2022-07-30T10:12:59;6.82;;;4.90;;
22205;SDS011;11272;50.104;8.754;2022-07-30T10:15:28;6.35;;;4.47;;
22205;SDS011;11272;50.104;8.754;2022-07-30T10:17:55;5.47;;;4.07;;
22205;SDS011;11272;50.104;8.754;2022-07-30T10:20:38;5.90;;;3.70;;
22205;SDS011;11272;50.104;8.754;2022-07-30T10:23:06;10.15;;;5.07;;
22205;SDS011;11272;50.104;8.754;2022-07-30T10:25:32;9.18;;;4.82;;
22205;SDS011;11272;50.104;8.754;2022-07-30T10:28:07;4.93;;;3.83;;
22205;SDS011;11272;50.104;8.754;2022-07-30T10:30:33;7.32;;;4.05;;
22205;SDS011;11272;50.104;8.754;2022-07-30T10:32:59;6.35;;;4.05;;
22205;SDS011;11272;50.104;8.754;2022-07-30T10:35:26;8.90;;;4.00;;
22205;SDS011;11272;50.104;8.754;2022-07-30T10:37:51;8.27;;;3.60;;
22205;SDS011;11272;50.104;8.754;2022-07-30T10:40:32;8.85;;;4.25;;
22205;SDS011;11272;50.104;8.754;2022-07-30T10:48:52;6.55;;;4.28;;
22205;SDS011;11272;50.104;8.754;2022-07-30T10:51:19;11.85;;;4.43;;
22205;SDS011;11272;50.104;8.754;2022-07-30T10:53:46;5.53;;;3.20;;
22205;SDS011;11272;50.104;8.754;2022-07-30T10:56:16;3.47;;;2.80;;
22205;SDS011;11272;50.104;8.754;2022-07-30T11:04:17;2.72;;;2.42;;
22205;SDS011;11272;50.104;8.754;2022-07-30T11:06:50;3.33;;;2.38;;
22205;SDS011;11272;50.104;8.754;2022-07-30T11:09:33;5.20;;;2.38;;
22205;SDS011;11272;50.104;8.754;2022-07-30T11:12:03;4.00;;;2.38;;
22205;SDS011;11272;50.104;8.754;2022-07-30T11:15:14;7.72;;;2.70;;
22205;SDS011;11272;50.104;8.754;2022-07-30T11:17:18;5.35;;;2.75;;
22205;SDS011;11272;50.104;8.754;2022-07-30T11:22:34;3.97;;;2.80;;
22205;SDS011;11272;50.104;8.754;2022-07-30T11:25:09;5.63;;;3.00;;
22205;SDS011;11272;50.104;8.754;2022-07-30T11:27:56;4.47;;;2.70;;
22205;SDS011;11272;50.104;8.754;2022-07-30T11:33:20;4.85;;;2.78;;
22205;SDS011;11272;50.104;8.754;2022-07-30T11:35:41;5.75;;;2.78;;
22205;SDS011;11272;50.104;8.754;2022-07-30T11:38:13;6.93;;;2.53;;
22205;SDS011;11272;50.104;8.754;2022-07-30T11:43:22;6.07;;;2.58;;
22205;SDS011;11272;50.104;8.754;2022-07-30T11:48:53;3.60;;;2.70;;
22205;SDS011;11272;50.104;8.754;2022-07-30T11:51:20;3.85;;;2.70;;
22205;SDS011;11272;50.104;8.754;2022-07-30T11:54:05;5.28;;;2.25;;
22205;SDS011;11272;50.104;8.754;2022-07-30T11:56:32;2.50;;;2.13;;
22205;SDS011;11272;50.104;8.754;2022-07-30T11:59:02;2.80;;;2.30;;
22205;SDS011;11272;50.104;8.754;2022-07-30T12:01:31;4.32;;;2.22;;
22205;SDS011;11272;50.104;8.754;2022-07-30T12:04:00;6.57;;;2.40;;
22205;SDS011;11272;50.104;8.754;2022-07-30T12:06:27;4.03;;;2.30;;
22205;SDS011;11272;50.104;8.754;2022-07-30T12:08:56;4.50;;;2.20;;
22205;SDS011;11272;50.104;8.754;2022-07-30T12:11:22;4.50;;;2.85;;
22205;SDS011;11272;50.104;8.754;2022-07-30T12:13:55;4.50;;;2.47;;
22205;SDS011;11272;50.104;8.754;2022-07-30T12:16:24;3.00;;;2.40;;
22205;SDS011;11272;50.104;8.754;2022-07-30T12:18:50;3.95;;;2.10;;
22205;SDS011;11272;50.104;8.754;2022-07-30T12:21:16;6.50;;;2.42;;
22205;SDS011;11272;50.104;8.754;2022-07-30T12:23:55;6.88;;;2.78;;
22205;SDS011;11272;50.104;8.754;2022-07-30T12:26:24;4.60;;;2.67;;
22205;SDS011;11272;50.104;8.754;2022-07-30T12:28:57;6.95;;;2.60;;
22205;SDS011;11272;50.104;8.754;2022-07-30T12:31:25;3.72;;;2.88;;
22205;SDS011;11272;50.104;8.754;2022-07-30T12:33:51;9.45;;;2.63;;
22205;SDS011;11272;50.104;8.754;2022-07-30T12:36:29;3.03;;;2.60;;
22205;SDS011;11272;50.104;8.754;2022-07-30T12:38:56;2.85;;;2.10;;
22205;SDS011;11272;50.104;8.754;2022-07-30T12:41:44;5.00;;;2.47;;
22205;SDS011;11272;50.104;8.754;2022-07-30T12:44:38;4.45;;;2.40;;
22205;SDS011;11272;50.104;8.754;2022-07-30T12:47:04;2.55;;;2.35;;
22205;SDS011;11272;50.104;8.754;2022-07-30T12:49:31;2.88;;;2.10;;
22205;SDS011;11272;50.104;8.754;2022-07-30T12:51:57;3.47;;;2.13;;
22205;SDS011;11272;50.104;8.754;2022-07-30T12:54:23;2.55;;;2.33;;
22205;SDS011;11272;50.104;8.754;2022-07-30T12:57:02;3.45;;;2.10;;
22205;SDS011;11272;50.104;8.754;2022-07-30T12:59:29;2.22;;;2.05;;
22205;SDS011;11272;50.104;8.754;2022-07-30T13:01:56;3.45;;;2.10;;
22205;SDS011;11272;50.104;8.754;2022-07-30T13:04:24;2.92;;;2.22;;
22205;SDS011;11272;50.104;8.754;2022-07-30T13:07:04;4.35;;;2.65;;
22205;SDS011;11272;50.104;8.754;2022-07-30T13:09:32;10.48;;;2.60;;
22205;SDS011;11272;50.104;8.754;2022-07-30T13:11:59;4.22;;;2.85;;
22205;SDS011;11272;50.104;8.754;2022-07-30T13:14:24;4.55;;;2.75;;
22205;SDS011;11272;50.104;8.754;2022-07-30T13:16:52;5.80;;;2.70;;
22205;SDS011;11272;50.104;8.754;2022-07-30T13:19:18;3.80;;;2.58;;
22205;SDS011;11272;50.104;8.754;2022-07-30T13:21:43;3.78;;;2.30;;
22205;SDS011;11272;50.104;8.754;2022-07-30T13:24:09;2.53;;;2.33;;
22205;SDS011;11272;50.104;8.754;2022-07-30T13:26:36;4.07;;;2.85;;
22205;SDS011;11272;50.104;8.754;2022-07-30T13:29:02;2.72;;;2.10;;
22205;SDS011;11272;50.104;8.754;2022-07-30T13:31:28;2.42;;;2.05;;
22205;SDS011;11272;50.104;8.754;2022-07-30T13:33:53;3.53;;;2.13;;
22205;SDS011;11272;50.104;8.754;2022-07-30T13:36:19;4.47;;;2.67;;
22205;SDS011;11272;50.104;8.754;2022-07-30T13:38:44;6.72;;;2.55;;
22205;SDS011;11272;50.104;8.754;2022-07-30T13:41:10;2.60;;;2.40;;
22205;SDS011;11272;50.104;8.754;2022-07-30T13:43:35;3.03;;;2.35;;
22205;SDS011;11272;50.104;8.754;2022-07-30T13:46:01;5.22;;;2.40;;
22205;SDS011;11272;50.104;8.754;2022-07-30T13:48:27;3.95;;;2.47;;
22205;SDS011;11272;50.104;8.754;2022-07-30T13:50:53;2.92;;;2.03;;
22205;SDS011;11272;50.104;8.754;2022-07-30T13:53:19;7.53;;;2.63;;
22205;SDS011;11272;50.104;8.754;2022-07-30T13:55:44;8.25;;;2.67;;
22205;SDS011;11272;50.104;8.754;2022-07-30T13:58:11;2.95;;;2.67;;
22205;SDS011;11272;50.104;8.754;2022-07-30T14:00:37;3.40;;;2.65;;
22205;SDS011;11272;50.104;8.754;2022-07-30T14:03:04;3.45;;;2.20;;
22205;SDS011;11272;50.104;8.754;2022-07-30T14:05:31;5.78;;;2.83;;
22205;SDS011;11272;50.104;8.754;2022-07-30T14:07:57;5.35;;;2.67;;
22205;SDS011;11272;50.104;8.754;2022-07-30T14:10:23;4.75;;;2.90;;
22205;SDS011;11272;50.104;8.754;2022-07-30T14:12:49;4.43;;;2.50;;
22205;SDS011;11272;50.104;8.754;2022-07-30T14:15:19;5.57;;;2.53;;
22205;SDS011;11272;50.104;8.754;2022-07-30T14:17:44;3.03;;;2.30;;
22205;SDS011;11272;50.104;8.754;2022-07-30T14:20:10;5.25;;;2.50;;
22205;SDS011;11272;50.104;8.754;2022-07-30T14:22:35;6.45;;;2.50;;
22205;SDS011;11272;50.104;8.754;2022-07-30T14:25:01;3.15;;;2.20;;
22205;SDS011;11272;50.104;8.754;2022-07-30T14:27:27;3.13;;;2.20;;
22205;SDS011;11272;50.104;8.754;2022-07-30T14:29:54;4.97;;;2.50;;
22205;SDS011;11272;50.104;8.754;2022-07-30T14:32:19;3.50;;;2.35;;
22205;SDS011;11272;50.104;8.754;2022-07-30T14:34:45;4.90;;;2.55;;
22205;SDS011;11272;50.104;8.754;2022-07-30T14:37:10;6.65;;;2.60;;
22205;SDS011;11272;50.104;8.754;2022-07-30T14:39:36;6.22;;;2.60;;
22205;SDS011;11272;50.104;8.754;2022-07-30T14:42:01;8.15;;;2.65;;
22205;SDS011;11272;50.104;8.754;2022-07-30T14:44:27;8.00;;;3.00;;
22205;SDS011;11272;50.104;8.754;2022-07-30T14:46:52;4.82;;;2.58;;
22205;SDS011;11272;50.104;8.754;2022-07-30T14:49:18;6.95;;;3.90;;
22205;SDS011;11272;50.104;8.754;2022-07-30T14:51:45;4.05;;;2.33;;
22205;SDS011;11272;50.104;8.754;2022-07-30T14:54:10;3.40;;;2.25;;
22205;SDS011;11272;50.104;8.754;2022-07-30T14:56:36;3.90;;;2.08;;
22205;SDS011;11272;50.104;8.754;2022-07-30T14:59:03;4.65;;;2.22;;
22205;SDS011;11272;50.104;8.754;2022-07-30T15:01:28;3.00;;;2.10;;
22205;SDS011;11272;50.104;8.754;2022-07-30T15:03:54;8.38;;;2.10;;
22205;SDS011;11272;50.104;8.754;2022-07-30T15:06:20;4.80;;;2.25;;
22205;SDS011;11272;50.104;8.754;2022-07-30T15:08:46;4.40;;;2.03;;
22205;SDS011;11272;50.104;8.754;2022-07-30T15:11:11;4.47;;;2.08;;
22205;SDS011;11272;50.104;8.754;2022-07-30T15:13:36;5.32;;;2.20;;
22205;SDS011;11272;50.104;8.754;2022-07-30T15:16:02;5.03;;;2.13;;
22205;SDS011;11272;50.104;8.754;2022-07-30T15:18:28;3.70;;;2.15;;
22205;SDS011;11272;50.104;8.754;2022-07-30T15:20:53;3.58;;;2.00;;
22205;SDS011;11272;50.104;8.754;2022-07-30T15:23:19;8.82;;;2.08;;
22205;SDS011;11272;50.104;8.754;2022-07-30T15:25:44;4.25;;;2.15;;
22205;SDS011;11272;50.104;8.754;2022-07-30T15:28:12;2.70;;;2.05;;